Terminal Aerodrome Forecast
Issued by NWS Cleveland, OH

Home | Current Version | Previous Version | Graphics & Text | Print | Product List | Glossary On
Versions: 1 2 3 4 5 6 7 8 9 10 11 12 13 14 15 16 17
206
FTUS41 KCLE 241735
TAFCAK
TAF
KCAK 241735Z 2418/2518 21012G18KT P6SM SCT040 BKN150
     FM250100 20010KT 6SM -SHRA OVC035
      TEMPO 2501/2505 5SM -SHRA OVC025
     FM250600 23006KT 3SM BR SCT012 OVC025
     FM251500 24012G18KT P6SM SCT020 BKN035=

USA.gov is the U.S. government's official web portal to all federal, state and local government web resources and services.